SJV681 WIOO-WIII
Flight info
| Callsign | SJV681 |
|---|---|
| Flight time | 1h 7m |
| Altitude | 36000 |
| Route | MASRI W38 AMBOY |
| Aircraft | A320/M-SDE3FGHIRWY/LB1 |
Departure
| Time | 2026-04-25 06:40 |
|---|---|
| Airport | Supadio International Airport (WIOO) |
Arrival
| Time | 2026-04-25 07:47 |
|---|---|
| Airport | Soekarno-Hatta International Airport (WIII) |
| Time | Latitude | Longitude | Altitude | Speed | Heading |
|---|---|---|---|---|---|
| 2026-04-25 06:16 | -0.14705 | 109.40391 | 32 ft | 0 kts | 66° |
| 2026-04-25 06:30 | -0.14715 | 109.40370 | 32 ft | 4 kts | 61° |
| 2026-04-25 06:30 | -0.14729 | 109.40347 | 32 ft | 4 kts | 49° |
| 2026-04-25 06:30 | -0.14747 | 109.40331 | 30 ft | 1 kts | 30° |
| 2026-04-25 06:31 | -0.14752 | 109.40328 | 32 ft | 0 kts | 30° |
| 2026-04-25 06:34 | -0.14751 | 109.40329 | 32 ft | 0 kts | 30° |
| 2026-04-25 06:34 | -0.14731 | 109.40336 | 32 ft | 5 kts | 8° |
| 2026-04-25 06:34 | -0.14692 | 109.40323 | 32 ft | 7 kts | 339° |
| 2026-04-25 06:35 | -0.14656 | 109.40310 | 32 ft | 6 kts | 339° |
| 2026-04-25 06:35 | -0.14610 | 109.40292 | 32 ft | 8 kts | 339° |
| 2026-04-25 06:35 | -0.14549 | 109.40268 | 31 ft | 11 kts | 338° |
| 2026-04-25 06:35 | -0.14478 | 109.40239 | 31 ft | 10 kts | 338° |
| 2026-04-25 06:36 | -0.14435 | 109.40220 | 31 ft | 6 kts | 329° |
| 2026-04-25 06:36 | -0.14428 | 109.40174 | 31 ft | 9 kts | 256° |
| 2026-04-25 06:36 | -0.14410 | 109.40115 | 30 ft | 10 kts | 321° |
| 2026-04-25 06:36 | -0.14340 | 109.40084 | 32 ft | 12 kts | 339° |
| 2026-04-25 06:37 | -0.14270 | 109.40056 | 31 ft | 7 kts | 338° |
| 2026-04-25 06:37 | -0.14231 | 109.40039 | 33 ft | 7 kts | 329° |
| 2026-04-25 06:37 | -0.14195 | 109.39998 | 33 ft | 8 kts | 313° |
| 2026-04-25 06:37 | -0.14156 | 109.39988 | 44 ft | 3 kts | 24° |
| 2026-04-25 06:38 | -0.14154 | 109.40005 | 41 ft | 3 kts | 116° |
| 2026-04-25 06:38 | -0.14169 | 109.40014 | 4 ft | 0 kts | 155° |
| 2026-04-25 06:39 | -0.14246 | 109.40047 | 7 ft | 43 kts | 158° |
| 2026-04-25 06:39 | -0.14748 | 109.40251 | 31 ft | 109 kts | 158° |
| 2026-04-25 06:39 | -0.15616 | 109.40601 | 34 ft | 158 kts | 158° |
| 2026-04-25 06:40 | -0.16683 | 109.41056 | 419 ft | 171 kts | 157° |
| 2026-04-25 06:40 | -0.17787 | 109.41531 | 1098 ft | 174 kts | 158° |
| 2026-04-25 06:40 | -0.18960 | 109.41824 | 1805 ft | 176 kts | 179° |
| 2026-04-25 06:40 | -0.20205 | 109.41750 | 2383 ft | 182 kts | 188° |
| 2026-04-25 06:41 | -0.21472 | 109.41571 | 2928 ft | 188 kts | 189° |
| 2026-04-25 06:41 | -0.22835 | 109.41379 | 3246 ft | 207 kts | 188° |
| 2026-04-25 06:41 | -0.24345 | 109.41195 | 3549 ft | 230 kts | 187° |
| 2026-04-25 06:41 | -0.25971 | 109.41017 | 4259 ft | 239 kts | 186° |
| 2026-04-25 06:42 | -0.27627 | 109.40851 | 5179 ft | 239 kts | 186° |
| 2026-04-25 06:42 | -0.29285 | 109.40698 | 6108 ft | 238 kts | 185° |
| 2026-04-25 06:42 | -0.30920 | 109.40560 | 6970 ft | 241 kts | 184° |
| 2026-04-25 06:42 | -0.32609 | 109.40421 | 7804 ft | 245 kts | 184° |
| 2026-04-25 06:43 | -0.34323 | 109.40270 | 8603 ft | 249 kts | 185° |
| 2026-04-25 06:43 | -0.36056 | 109.40091 | 9435 ft | 252 kts | 185° |
| 2026-04-25 06:43 | -0.37881 | 109.39889 | 9810 ft | 276 kts | 185° |
| 2026-04-25 06:43 | -0.39864 | 109.39698 | 10210 ft | 295 kts | 184° |
| 2026-04-25 06:44 | -0.41979 | 109.39520 | 10546 ft | 316 kts | 184° |
| 2026-04-25 06:44 | -0.44241 | 109.39330 | 10874 ft | 334 kts | 184° |
| 2026-04-25 06:44 | -0.46589 | 109.39122 | 11503 ft | 342 kts | 184° |
| 2026-04-25 06:44 | -0.48979 | 109.38905 | 12214 ft | 346 kts | 184° |
| 2026-04-25 06:45 | -0.51390 | 109.38682 | 12912 ft | 350 kts | 184° |
| 2026-04-25 06:45 | -0.53825 | 109.38460 | 13588 ft | 353 kts | 184° |
| 2026-04-25 06:45 | -0.56283 | 109.38239 | 14252 ft | 356 kts | 184° |
| 2026-04-25 06:45 | -0.58769 | 109.38018 | 14900 ft | 359 kts | 184° |
| 2026-04-25 06:46 | -0.61266 | 109.37797 | 15524 ft | 362 kts | 184° |
| 2026-04-25 06:46 | -0.63790 | 109.37572 | 16134 ft | 365 kts | 184° |
| 2026-04-25 06:46 | -0.66330 | 109.37345 | 16736 ft | 369 kts | 184° |
| 2026-04-25 06:46 | -0.68897 | 109.37114 | 17330 ft | 372 kts | 184° |
| 2026-04-25 06:47 | -0.71485 | 109.36877 | 17912 ft | 375 kts | 184° |
| 2026-04-25 06:47 | -0.74094 | 109.36640 | 18489 ft | 378 kts | 184° |
| 2026-04-25 06:47 | -0.76693 | 109.36407 | 19039 ft | 381 kts | 184° |
| 2026-04-25 06:47 | -0.79377 | 109.36169 | 19598 ft | 384 kts | 184° |
| 2026-04-25 06:48 | -0.82052 | 109.35930 | 20147 ft | 387 kts | 184° |
| 2026-04-25 06:48 | -0.84748 | 109.35689 | 20673 ft | 391 kts | 184° |
| 2026-04-25 06:48 | -0.87431 | 109.35447 | 21157 ft | 394 kts | 184° |
| 2026-04-25 06:48 | -0.90169 | 109.35200 | 21653 ft | 397 kts | 184° |
| 2026-04-25 06:49 | -0.92965 | 109.34943 | 22133 ft | 400 kts | 185° |
| 2026-04-25 06:49 | -0.95704 | 109.34659 | 22595 ft | 403 kts | 185° |
| 2026-04-25 06:49 | -0.98498 | 109.34349 | 23060 ft | 405 kts | 185° |
| 2026-04-25 06:49 | -1.01313 | 109.34029 | 23508 ft | 408 kts | 185° |
| 2026-04-25 06:50 | -1.04144 | 109.33708 | 23944 ft | 411 kts | 185° |
| 2026-04-25 06:50 | -1.06998 | 109.33389 | 24383 ft | 414 kts | 185° |
| 2026-04-25 06:50 | -1.09866 | 109.33072 | 24800 ft | 417 kts | 185° |
| 2026-04-25 06:50 | -1.12757 | 109.32756 | 25209 ft | 419 kts | 185° |
| 2026-04-25 06:51 | -1.15670 | 109.32441 | 25611 ft | 422 kts | 185° |
| 2026-04-25 06:51 | -1.18601 | 109.32125 | 26005 ft | 425 kts | 185° |
| 2026-04-25 06:51 | -1.21545 | 109.31806 | 26386 ft | 427 kts | 185° |
| 2026-04-25 06:51 | -1.24510 | 109.31485 | 26762 ft | 430 kts | 185° |
| 2026-04-25 06:52 | -1.27494 | 109.31161 | 27127 ft | 433 kts | 185° |
| 2026-04-25 06:52 | -1.30498 | 109.30835 | 27478 ft | 435 kts | 185° |
| 2026-04-25 06:52 | -1.33489 | 109.30311 | 27809 ft | 439 kts | 194° |
| 2026-04-25 06:52 | -1.36377 | 109.29267 | 28140 ft | 444 kts | 204° |
| 2026-04-25 06:53 | -1.39107 | 109.27792 | 28468 ft | 447 kts | 208° |
| 2026-04-25 06:53 | -1.41830 | 109.26266 | 28814 ft | 450 kts | 208° |
| 2026-04-25 06:53 | -1.44571 | 109.24739 | 29156 ft | 453 kts | 208° |
| 2026-04-25 06:53 | -1.47332 | 109.23206 | 29503 ft | 455 kts | 207° |
| 2026-04-25 06:54 | -1.49165 | 109.22189 | 29732 ft | 457 kts | 207° |
| 2026-04-25 06:54 | -1.51954 | 109.20643 | 30073 ft | 459 kts | 207° |
| 2026-04-25 06:54 | -1.54749 | 109.19092 | 30403 ft | 461 kts | 207° |
| 2026-04-25 06:54 | -1.57559 | 109.17529 | 30719 ft | 464 kts | 208° |
| 2026-04-25 06:55 | -1.60382 | 109.15956 | 31027 ft | 466 kts | 208° |
| 2026-04-25 06:55 | -1.63219 | 109.14375 | 31409 ft | 466 kts | 207° |
| 2026-04-25 06:55 | -1.66971 | 109.12289 | 31983 ft | 465 kts | 207° |
| 2026-04-25 06:55 | -1.68880 | 109.11228 | 32273 ft | 465 kts | 207° |
| 2026-04-25 06:56 | -1.71698 | 109.09661 | 32691 ft | 464 kts | 207° |
| 2026-04-25 06:56 | -1.74522 | 109.08092 | 33109 ft | 463 kts | 207° |
| 2026-04-25 06:56 | -1.77339 | 109.06524 | 33513 ft | 463 kts | 207° |
| 2026-04-25 06:56 | -1.80116 | 109.04978 | 33905 ft | 463 kts | 207° |
| 2026-04-25 06:57 | -1.82933 | 109.03411 | 34284 ft | 462 kts | 207° |
| 2026-04-25 06:57 | -1.85736 | 109.01855 | 34660 ft | 462 kts | 207° |
| 2026-04-25 06:57 | -1.88545 | 109.00296 | 35035 ft | 461 kts | 207° |
| 2026-04-25 06:57 | -1.91341 | 108.98740 | 35395 ft | 460 kts | 207° |
| 2026-04-25 06:58 | -1.94131 | 108.97184 | 35738 ft | 459 kts | 207° |
| 2026-04-25 06:58 | -1.96921 | 108.95628 | 35846 ft | 458 kts | 207° |
| 2026-04-25 06:58 | -1.99692 | 108.94082 | 35866 ft | 456 kts | 207° |
| 2026-04-25 06:59 | -2.05228 | 108.90997 | 35865 ft | 455 kts | 207° |
| 2026-04-25 06:59 | -2.10753 | 108.87929 | 35861 ft | 455 kts | 207° |
| 2026-04-25 07:00 | -2.16283 | 108.84857 | 35868 ft | 454 kts | 207° |
| 2026-04-25 07:00 | -2.21806 | 108.81781 | 35865 ft | 455 kts | 207° |
| 2026-04-25 07:01 | -2.27398 | 108.78670 | 35869 ft | 467 kts | 207° |
| 2026-04-25 07:01 | -2.33122 | 108.75486 | 35858 ft | 480 kts | 207° |
| 2026-04-25 07:02 | -2.38990 | 108.72213 | 35857 ft | 484 kts | 207° |
| 2026-04-25 07:02 | -2.44874 | 108.68935 | 35866 ft | 484 kts | 207° |
| 2026-04-25 07:03 | -2.50946 | 108.66108 | 35871 ft | 480 kts | 195° |
| 2026-04-25 07:03 | -2.57338 | 108.64181 | 35864 ft | 480 kts | 195° |
| 2026-04-25 07:04 | -2.63727 | 108.62230 | 35867 ft | 480 kts | 195° |
| 2026-04-25 07:04 | -2.70118 | 108.60277 | 35865 ft | 480 kts | 195° |
| 2026-04-25 07:05 | -2.76508 | 108.58335 | 35876 ft | 480 kts | 195° |
| 2026-04-25 07:05 | -2.82907 | 108.56397 | 35863 ft | 480 kts | 195° |
| 2026-04-25 07:06 | -2.89303 | 108.54450 | 35880 ft | 480 kts | 195° |
| 2026-04-25 07:06 | -2.95658 | 108.52515 | 35877 ft | 480 kts | 195° |
| 2026-04-25 07:07 | -3.02049 | 108.50577 | 35867 ft | 480 kts | 195° |
| 2026-04-25 07:07 | -3.08447 | 108.48628 | 35880 ft | 480 kts | 195° |
| 2026-04-25 07:08 | -3.14841 | 108.46682 | 35868 ft | 480 kts | 196° |
| 2026-04-25 07:08 | -3.21249 | 108.44732 | 35852 ft | 482 kts | 196° |
| 2026-04-25 07:09 | -3.27674 | 108.42767 | 35843 ft | 484 kts | 197° |
| 2026-04-25 07:09 | -3.34130 | 108.40801 | 35848 ft | 485 kts | 196° |
| 2026-04-25 07:10 | -3.40560 | 108.38849 | 35845 ft | 486 kts | 196° |
| 2026-04-25 07:10 | -3.47082 | 108.36860 | 35858 ft | 487 kts | 197° |
| 2026-04-25 07:11 | -3.53519 | 108.34895 | 35862 ft | 488 kts | 197° |
| 2026-04-25 07:11 | -3.60012 | 108.32920 | 35860 ft | 488 kts | 197° |
| 2026-04-25 07:12 | -3.66507 | 108.30941 | 35870 ft | 488 kts | 197° |
| 2026-04-25 07:12 | -3.76244 | 108.27984 | 35876 ft | 488 kts | 196° |
| 2026-04-25 07:13 | -3.82765 | 108.25996 | 35838 ft | 492 kts | 197° |
| 2026-04-25 07:13 | -3.89324 | 108.23989 | 35836 ft | 493 kts | 197° |
| 2026-04-25 07:14 | -3.95895 | 108.21989 | 35839 ft | 494 kts | 197° |
| 2026-04-25 07:14 | -4.02461 | 108.19980 | 35839 ft | 494 kts | 197° |
| 2026-04-25 07:15 | -4.09028 | 108.17976 | 35841 ft | 494 kts | 197° |
| 2026-04-25 07:15 | -4.15458 | 108.15555 | 35840 ft | 494 kts | 207° |
| 2026-04-25 07:16 | -4.21537 | 108.12356 | 35835 ft | 494 kts | 207° |
| 2026-04-25 07:16 | -4.27587 | 108.09175 | 35840 ft | 494 kts | 207° |
| 2026-04-25 07:17 | -4.33671 | 108.05967 | 35846 ft | 494 kts | 207° |
| 2026-04-25 07:17 | -4.39777 | 108.02756 | 35844 ft | 494 kts | 207° |
| 2026-04-25 07:18 | -4.45879 | 107.99552 | 35839 ft | 496 kts | 207° |
| 2026-04-25 07:18 | -4.51977 | 107.96341 | 35837 ft | 493 kts | 206° |
| 2026-04-25 07:19 | -4.58033 | 107.93149 | 35838 ft | 490 kts | 206° |
| 2026-04-25 07:19 | -4.64069 | 107.89976 | 35836 ft | 490 kts | 206° |
| 2026-04-25 07:20 | -4.70065 | 107.86816 | 35836 ft | 490 kts | 208° |
| 2026-04-25 07:20 | -4.72830 | 107.84824 | 35838 ft | 491 kts | 222° |
| 2026-04-25 07:20 | -4.75294 | 107.82456 | 35839 ft | 492 kts | 223° |
| 2026-04-25 07:21 | -4.80200 | 107.77671 | 35835 ft | 492 kts | 223° |
| 2026-04-25 07:21 | -4.85096 | 107.72868 | 35837 ft | 492 kts | 223° |
| 2026-04-25 07:22 | -4.89997 | 107.68066 | 35840 ft | 492 kts | 223° |
| 2026-04-25 07:22 | -4.92427 | 107.65688 | 35676 ft | 483 kts | 223° |
| 2026-04-25 07:22 | -4.94833 | 107.63336 | 35041 ft | 483 kts | 223° |
| 2026-04-25 07:23 | -4.97230 | 107.60992 | 34514 ft | 480 kts | 224° |
| 2026-04-25 07:23 | -4.99613 | 107.58661 | 34021 ft | 476 kts | 224° |
| 2026-04-25 07:23 | -5.01989 | 107.56336 | 33243 ft | 478 kts | 224° |
| 2026-04-25 07:23 | -5.04370 | 107.54006 | 32578 ft | 477 kts | 224° |
| 2026-04-25 07:24 | -5.06704 | 107.51723 | 32023 ft | 474 kts | 223° |
| 2026-04-25 07:24 | -5.09052 | 107.49424 | 31504 ft | 469 kts | 223° |
| 2026-04-25 07:24 | -5.11396 | 107.47141 | 30534 ft | 473 kts | 223° |
| 2026-04-25 07:24 | -5.13781 | 107.44849 | 29606 ft | 477 kts | 223° |
| 2026-04-25 07:25 | -5.16180 | 107.42563 | 28935 ft | 473 kts | 223° |
| 2026-04-25 07:25 | -5.18556 | 107.40304 | 28285 ft | 468 kts | 222° |
| 2026-04-25 07:25 | -5.20919 | 107.38052 | 27700 ft | 469 kts | 222° |
| 2026-04-25 07:25 | -5.23327 | 107.35756 | 27240 ft | 486 kts | 222° |
| 2026-04-25 07:26 | -5.25793 | 107.33401 | 26741 ft | 492 kts | 223° |
| 2026-04-25 07:26 | -5.28273 | 107.31021 | 26230 ft | 492 kts | 223° |
| 2026-04-25 07:26 | -5.30739 | 107.28652 | 25718 ft | 491 kts | 223° |
| 2026-04-25 07:26 | -5.33202 | 107.26285 | 25175 ft | 488 kts | 223° |
| 2026-04-25 07:27 | -5.35648 | 107.23934 | 24640 ft | 485 kts | 224° |
| 2026-04-25 07:27 | -5.38079 | 107.21602 | 24091 ft | 482 kts | 224° |
| 2026-04-25 07:27 | -5.40528 | 107.19253 | 23530 ft | 494 kts | 224° |
| 2026-04-25 07:27 | -5.43018 | 107.16865 | 22925 ft | 497 kts | 224° |
| 2026-04-25 07:28 | -5.45511 | 107.14474 | 22298 ft | 492 kts | 224° |
| 2026-04-25 07:28 | -5.47967 | 107.12118 | 21674 ft | 486 kts | 224° |
| 2026-04-25 07:28 | -5.50369 | 107.09813 | 21055 ft | 482 kts | 224° |
| 2026-04-25 07:28 | -5.52782 | 107.07498 | 20426 ft | 478 kts | 223° |
| 2026-04-25 07:29 | -5.55175 | 107.05209 | 19805 ft | 473 kts | 223° |
| 2026-04-25 07:29 | -5.57544 | 107.02942 | 19181 ft | 468 kts | 223° |
| 2026-04-25 07:29 | -5.59885 | 107.00698 | 18549 ft | 463 kts | 223° |
| 2026-04-25 07:29 | -5.62205 | 106.98473 | 17931 ft | 459 kts | 223° |
| 2026-04-25 07:30 | -5.64512 | 106.96261 | 17303 ft | 456 kts | 223° |
| 2026-04-25 07:30 | -5.66796 | 106.94067 | 16677 ft | 453 kts | 223° |
| 2026-04-25 07:30 | -5.69070 | 106.91883 | 16050 ft | 450 kts | 224° |
| 2026-04-25 07:30 | -5.71324 | 106.89721 | 15424 ft | 446 kts | 224° |
| 2026-04-25 07:31 | -5.73254 | 106.87870 | 14864 ft | 442 kts | 223° |
| 2026-04-25 07:31 | -5.75469 | 106.85744 | 14248 ft | 438 kts | 224° |
| 2026-04-25 07:31 | -5.77661 | 106.83639 | 13624 ft | 434 kts | 223° |
| 2026-04-25 07:31 | -5.79834 | 106.81552 | 13050 ft | 429 kts | 223° |
| 2026-04-25 07:32 | -5.81986 | 106.79485 | 12836 ft | 428 kts | 223° |
| 2026-04-25 07:32 | -5.84129 | 106.77424 | 12836 ft | 428 kts | 223° |
| 2026-04-25 07:32 | -5.86161 | 106.75296 | 12844 ft | 428 kts | 233° |
| 2026-04-25 07:32 | -5.87631 | 106.72694 | 12625 ft | 429 kts | 246° |
| 2026-04-25 07:33 | -5.88802 | 106.69956 | 11905 ft | 424 kts | 248° |
| 2026-04-25 07:33 | -5.89888 | 106.67235 | 11394 ft | 418 kts | 249° |
| 2026-04-25 07:33 | -5.90936 | 106.64518 | 10880 ft | 414 kts | 249° |
| 2026-04-25 07:33 | -5.91964 | 106.61843 | 10456 ft | 403 kts | 249° |
| 2026-04-25 07:34 | -5.92954 | 106.59292 | 10327 ft | 382 kts | 248° |
| 2026-04-25 07:34 | -5.93921 | 106.56901 | 10178 ft | 354 kts | 248° |
| 2026-04-25 07:34 | -5.94824 | 106.54701 | 10046 ft | 327 kts | 247° |
| 2026-04-25 07:34 | -5.95660 | 106.52669 | 9916 ft | 304 kts | 247° |
| 2026-04-25 07:35 | -5.96446 | 106.50753 | 9601 ft | 291 kts | 248° |
| 2026-04-25 07:35 | -5.97203 | 106.48896 | 9385 ft | 288 kts | 248° |
| 2026-04-25 07:35 | -5.97961 | 106.47035 | 9043 ft | 287 kts | 248° |
| 2026-04-25 07:35 | -5.98714 | 106.45181 | 8692 ft | 287 kts | 248° |
| 2026-04-25 07:36 | -5.99466 | 106.43327 | 8339 ft | 285 kts | 248° |
| 2026-04-25 07:36 | -6.00214 | 106.41486 | 7982 ft | 284 kts | 248° |
| 2026-04-25 07:36 | -6.00959 | 106.39655 | 7632 ft | 283 kts | 248° |
| 2026-04-25 07:36 | -6.01699 | 106.37833 | 7392 ft | 281 kts | 248° |
| 2026-04-25 07:37 | -6.02438 | 106.36015 | 7290 ft | 278 kts | 248° |
| 2026-04-25 07:37 | -6.03145 | 106.34274 | 7171 ft | 260 kts | 247° |
| 2026-04-25 07:37 | -6.04065 | 106.32821 | 7064 ft | 248 kts | 222° |
| 2026-04-25 07:37 | -6.05542 | 106.31933 | 6912 ft | 245 kts | 194° |
| 2026-04-25 07:38 | -6.07202 | 106.31827 | 6650 ft | 240 kts | 168° |
| 2026-04-25 07:38 | -6.08851 | 106.32121 | 6399 ft | 240 kts | 168° |
| 2026-04-25 07:38 | -6.10418 | 106.32401 | 6177 ft | 240 kts | 168° |
| 2026-04-25 07:38 | -6.11386 | 106.32575 | 6022 ft | 240 kts | 167° |
| 2026-04-25 07:39 | -6.13001 | 106.32860 | 5785 ft | 238 kts | 168° |
| 2026-04-25 07:39 | -6.14625 | 106.33144 | 5552 ft | 237 kts | 167° |
| 2026-04-25 07:39 | -6.16252 | 106.33429 | 5313 ft | 237 kts | 168° |
| 2026-04-25 07:39 | -6.17866 | 106.33713 | 5144 ft | 232 kts | 167° |
| 2026-04-25 07:40 | -6.19423 | 106.34028 | 5031 ft | 223 kts | 158° |
| 2026-04-25 07:40 | -6.20715 | 106.34772 | 4971 ft | 210 kts | 135° |
| 2026-04-25 07:40 | -6.21599 | 106.35909 | 4781 ft | 205 kts | 119° |
| 2026-04-25 07:40 | -6.22344 | 106.37120 | 4606 ft | 202 kts | 120° |
| 2026-04-25 07:41 | -6.23089 | 106.38324 | 4449 ft | 203 kts | 117° |
| 2026-04-25 07:41 | -6.23561 | 106.39635 | 4288 ft | 200 kts | 96° |
| 2026-04-25 07:41 | -6.23509 | 106.41022 | 4114 ft | 198 kts | 75° |
| 2026-04-25 07:41 | -6.23047 | 106.42302 | 3962 ft | 198 kts | 68° |
| 2026-04-25 07:42 | -6.22531 | 106.43587 | 3807 ft | 198 kts | 68° |
| 2026-04-25 07:42 | -6.22018 | 106.44870 | 3633 ft | 197 kts | 69° |
| 2026-04-25 07:42 | -6.21508 | 106.46150 | 3499 ft | 198 kts | 70° |
| 2026-04-25 07:42 | -6.20997 | 106.47432 | 3347 ft | 197 kts | 69° |
| 2026-04-25 07:43 | -6.20492 | 106.48703 | 3241 ft | 197 kts | 68° |
| 2026-04-25 07:43 | -6.19984 | 106.49978 | 3034 ft | 195 kts | 68° |
| 2026-04-25 07:43 | -6.19483 | 106.51238 | 2774 ft | 194 kts | 68° |
| 2026-04-25 07:43 | -6.18984 | 106.52491 | 2508 ft | 190 kts | 69° |
| 2026-04-25 07:44 | -6.18497 | 106.53713 | 2279 ft | 187 kts | 67° |
| 2026-04-25 07:44 | -6.18028 | 106.54891 | 2030 ft | 177 kts | 68° |
| 2026-04-25 07:44 | -6.17589 | 106.55996 | 1794 ft | 163 kts | 66° |
| 2026-04-25 07:44 | -6.17189 | 106.57002 | 1588 ft | 149 kts | 66° |
| 2026-04-25 07:45 | -6.16816 | 106.57938 | 1404 ft | 140 kts | 66° |
| 2026-04-25 07:45 | -6.16461 | 106.58829 | 1210 ft | 135 kts | 65° |
| 2026-04-25 07:45 | -6.16116 | 106.59694 | 1042 ft | 134 kts | 65° |
| 2026-04-25 07:45 | -6.15771 | 106.60562 | 852 ft | 133 kts | 67° |
| 2026-04-25 07:46 | -6.15426 | 106.61425 | 672 ft | 133 kts | 66° |
| 2026-04-25 07:46 | -6.15085 | 106.62277 | 488 ft | 132 kts | 66° |
| 2026-04-25 07:46 | -6.14731 | 106.63133 | 279 ft | 133 kts | 66° |
| 2026-04-25 07:46 | -6.14395 | 106.64003 | 148 ft | 134 kts | 67° |
| 2026-04-25 07:47 | -6.14034 | 106.64867 | 43 ft | 130 kts | 68° |
| 2026-04-25 07:47 | -6.13759 | 106.65587 | 38 ft | 87 kts | 68° |
| 2026-04-25 07:47 | -6.13598 | 106.65990 | 36 ft | 37 kts | 69° |
| 2026-04-25 07:47 | -6.13548 | 106.66115 | 39 ft | 11 kts | 68° |
| 2026-04-25 07:48 | -6.13520 | 106.66157 | 39 ft | 11 kts | 51° |
| 2026-04-25 07:48 | -6.13466 | 106.66213 | 40 ft | 12 kts | 43° |
| 2026-04-25 07:48 | -6.13438 | 106.66237 | 39 ft | 3 kts | 39° |
| 2026-04-25 07:48 | -6.13424 | 106.66249 | 39 ft | 2 kts | 39° |
| 2026-04-25 07:49 | -6.13421 | 106.66251 | 39 ft | 2 kts | 39° |
| 2026-04-25 07:49 | -6.13418 | 106.66253 | 39 ft | 0 kts | 39° |
| 2026-04-25 07:49 | -6.13416 | 106.66255 | 39 ft | 2 kts | 39° |
| 2026-04-25 07:49 | -6.13398 | 106.66270 | 39 ft | 5 kts | 38° |
| 2026-04-25 07:50 | -6.13355 | 106.66292 | 39 ft | 9 kts | 15° |
| 2026-04-25 07:50 | -6.13304 | 106.66255 | 38 ft | 12 kts | 278° |
| 2026-04-25 07:50 | -6.13326 | 106.66188 | 38 ft | 9 kts | 249° |
| 2026-04-25 07:50 | -6.13350 | 106.66125 | 38 ft | 7 kts | 248° |
| 2026-04-25 07:51 | -6.13371 | 106.66072 | 36 ft | 9 kts | 248° |
| 2026-04-25 07:51 | -6.13392 | 106.66020 | 38 ft | 9 kts | 248° |
| 2026-04-25 07:51 | -6.13418 | 106.65954 | 38 ft | 12 kts | 248° |
| 2026-04-25 07:51 | -6.13452 | 106.65870 | 37 ft | 13 kts | 249° |
| 2026-04-25 07:52 | -6.13479 | 106.65799 | 37 ft | 10 kts | 249° |
| 2026-04-25 07:52 | -6.13507 | 106.65731 | 37 ft | 11 kts | 248° |
| 2026-04-25 07:52 | -6.13538 | 106.65652 | 38 ft | 13 kts | 248° |
| 2026-04-25 07:52 | -6.13573 | 106.65565 | 36 ft | 15 kts | 248° |
| 2026-04-25 07:53 | -6.13604 | 106.65487 | 38 ft | 11 kts | 248° |
| 2026-04-25 07:53 | -6.13637 | 106.65406 | 38 ft | 14 kts | 248° |
| 2026-04-25 07:53 | -6.13676 | 106.65309 | 38 ft | 16 kts | 248° |
| 2026-04-25 07:53 | -6.13721 | 106.65198 | 37 ft | 17 kts | 248° |
| 2026-04-25 07:54 | -6.13759 | 106.65101 | 35 ft | 12 kts | 251° |
| 2026-04-25 07:54 | -6.13755 | 106.65064 | 37 ft | 4 kts | 299° |
| 2026-04-25 07:54 | -6.13723 | 106.65042 | 38 ft | 7 kts | 338° |
| 2026-04-25 07:54 | -6.13667 | 106.65020 | 38 ft | 10 kts | 338° |
| 2026-04-25 07:55 | -6.13591 | 106.64990 | 38 ft | 13 kts | 338° |
| 2026-04-25 07:55 | -6.13495 | 106.64952 | 38 ft | 16 kts | 338° |
| 2026-04-25 07:55 | -6.13382 | 106.64907 | 38 ft | 19 kts | 338° |
| 2026-04-25 07:55 | -6.13249 | 106.64854 | 36 ft | 20 kts | 338° |
| 2026-04-25 07:56 | -6.13120 | 106.64802 | 38 ft | 20 kts | 339° |
| 2026-04-25 07:56 | -6.12986 | 106.64749 | 38 ft | 21 kts | 338° |
| 2026-04-25 07:56 | -6.12876 | 106.64705 | 38 ft | 17 kts | 338° |
| 2026-04-25 07:56 | -6.12757 | 106.64658 | 38 ft | 20 kts | 338° |
| 2026-04-25 07:57 | -6.12617 | 106.64602 | 38 ft | 23 kts | 338° |
| 2026-04-25 07:57 | -6.12501 | 106.64555 | 38 ft | 17 kts | 338° |
| 2026-04-25 07:57 | -6.12407 | 106.64518 | 38 ft | 13 kts | 338° |
| 2026-04-25 07:57 | -6.12315 | 106.64480 | 35 ft | 15 kts | 338° |
| 2026-04-25 07:58 | -6.12221 | 106.64445 | 38 ft | 11 kts | 340° |
| 2026-04-25 07:58 | -6.12154 | 106.64465 | 38 ft | 10 kts | 58° |
| 2026-04-25 07:58 | -6.12125 | 106.64536 | 36 ft | 13 kts | 68° |
| 2026-04-25 07:58 | -6.12095 | 106.64611 | 38 ft | 12 kts | 69° |
| 2026-04-25 07:59 | -6.12061 | 106.64697 | 38 ft | 15 kts | 68° |
| 2026-04-25 07:59 | -6.12018 | 106.64801 | 38 ft | 15 kts | 68° |
| 2026-04-25 07:59 | -6.11976 | 106.64905 | 38 ft | 17 kts | 68° |
| 2026-04-25 07:59 | -6.11937 | 106.65001 | 38 ft | 13 kts | 69° |
| 2026-04-25 08:00 | -6.11911 | 106.65084 | 38 ft | 7 kts | 92° |
| 2026-04-25 08:00 | -6.11923 | 106.65103 | 37 ft | 4 kts | 133° |
| 2026-04-25 08:00 | -6.11937 | 106.65110 | 38 ft | 1 kts | 155° |
| 2026-04-25 08:00 | -6.11945 | 106.65114 | 38 ft | 2 kts | 156° |
| 2026-04-25 08:01 | -6.11959 | 106.65120 | 35 ft | 2 kts | 157° |
| 2026-04-25 08:01 | -6.11966 | 106.65123 | 36 ft | 1 kts | 157° |
| 2026-04-25 08:01 | -6.11971 | 106.65125 | 37 ft | 0 kts | 158° |
| 2026-04-25 08:01 | -6.11973 | 106.65126 | 38 ft | 0 kts | 158° |